createdAt,value
2022-10-11T00:02:17.452Z,4.15
2022-10-11T00:04:51.722Z,3.33
2022-10-11T00:07:19.714Z,3.95
2022-10-11T00:09:53.716Z,2.55
2022-10-11T00:12:21.259Z,4.95
2022-10-11T00:14:55.121Z,3.45
2022-10-11T00:17:28.777Z,2.63
2022-10-11T00:20:02.758Z,3.30
2022-10-11T00:22:29.877Z,3.60
2022-10-11T00:25:06.013Z,2.60
2022-10-11T00:27:35.443Z,2.17
2022-10-11T00:30:09.773Z,3.47
2022-10-11T00:32:45.710Z,2.80
2022-10-11T00:35:19.911Z,3.45
2022-10-11T00:37:47.124Z,2.87
2022-10-11T00:40:25.207Z,1.83
2022-10-11T00:42:52.422Z,2.72
2022-10-11T00:45:37.907Z,4.53
2022-10-11T00:50:43.783Z,1.73
2022-10-11T00:53:14.858Z,2.17
2022-10-11T00:56:00.785Z,4.07
2022-10-11T00:58:35.729Z,2.63
2022-10-11T01:01:03.651Z,3.75
2022-10-11T01:03:39.841Z,2.22
2022-10-11T01:06:13.703Z,2.75
2022-10-11T01:08:42.533Z,2.60
2022-10-11T01:11:20.697Z,3.38
2022-10-11T01:14:27.907Z,2.63
2022-10-11T01:17:26.792Z,2.75
2022-10-11T01:20:15.922Z,2.67
2022-10-11T01:22:59.717Z,1.85
2022-10-11T01:25:39.767Z,3.55
2022-10-11T01:28:13.862Z,3.05
2022-10-11T01:30:48.968Z,4.00
2022-10-11T01:36:34.973Z,2.45
2022-10-11T01:39:13.731Z,2.17
2022-10-11T01:41:54.352Z,1.95
2022-10-11T01:44:26.368Z,1.75
2022-10-11T01:47:00.923Z,3.70
2022-10-11T01:49:34.909Z,3.28
2022-10-11T01:52:13.227Z,2.47
2022-10-11T01:55:10.479Z,3.95
2022-10-11T01:57:59.672Z,3.05
2022-10-11T02:00:34.332Z,2.55
2022-10-11T02:03:16.792Z,2.22
2022-10-11T02:06:04.178Z,3.30
2022-10-11T02:08:44.816Z,2.03
2022-10-11T02:11:45.751Z,2.20
2022-10-11T02:14:29.817Z,2.22
2022-10-11T02:17:20.756Z,1.60
2022-10-11T02:19:58.807Z,2.42
2022-10-11T02:22:39.026Z,2.70
2022-10-11T02:25:11.011Z,2.90
2022-10-11T02:27:46.772Z,2.42
2022-10-11T02:30:15.952Z,1.83
2022-10-11T02:32:44.916Z,2.92
2022-10-11T02:35:22.036Z,1.70
2022-10-11T02:38:06.826Z,2.20
2022-10-11T02:40:44.823Z,2.17
2022-10-11T02:43:20.356Z,4.50
2022-10-11T02:45:58.907Z,2.67
2022-10-11T02:48:29.919Z,3.28
2022-10-11T02:51:06.827Z,2.45
2022-10-11T02:53:40.962Z,3.17
2022-10-11T02:56:16.741Z,3.08
2022-10-11T02:58:50.706Z,3.15
2022-10-11T03:01:18.237Z,2.78
2022-10-11T03:03:51.768Z,5.03
2022-10-11T03:06:25.811Z,4.07
2022-10-11T03:08:53.095Z,3.92
2022-10-11T03:11:26.742Z,3.35
2022-10-11T03:14:13.827Z,3.95
2022-10-11T03:16:47.867Z,3.42
2022-10-11T03:19:19.358Z,3.10
2022-10-11T03:21:53.846Z,2.88
2022-10-11T03:24:21.241Z,2.93
2022-10-11T03:26:54.816Z,3.33
2022-10-11T03:29:22.636Z,3.55
2022-10-11T03:31:57.237Z,2.95
2022-10-11T03:34:24.469Z,2.10
2022-10-11T03:36:51.890Z,2.90
2022-10-11T03:39:25.787Z,2.65
2022-10-11T03:41:59.825Z,3.25
2022-10-11T03:44:34.783Z,3.50
2022-10-11T03:47:02.000Z,2.15
2022-10-11T03:49:38.821Z,4.35
2022-10-11T03:52:10.187Z,3.78
2022-10-11T03:54:43.762Z,3.97
2022-10-11T03:57:12.172Z,3.55
2022-10-11T03:59:45.769Z,3.60
2022-10-11T04:02:13.013Z,4.97
2022-10-11T04:04:46.768Z,3.58
2022-10-11T04:07:13.997Z,2.80
2022-10-11T04:09:47.726Z,3.60
2022-10-11T04:12:16.332Z,2.40
2022-10-11T04:14:56.671Z,2.97
2022-10-11T04:17:36.731Z,3.50
2022-10-11T04:20:10.688Z,4.07
2022-10-11T04:22:45.776Z,3.60
2022-10-11T04:27:47.093Z,3.00
2022-10-11T04:30:21.952Z,2.75
2022-10-11T04:32:49.211Z,3.60
2022-10-11T04:35:23.252Z,3.55
2022-10-11T04:37:50.612Z,4.60
2022-10-11T04:40:17.992Z,3.83
2022-10-11T04:42:52.097Z,3.35
2022-10-11T04:45:19.772Z,4.00
2022-10-11T04:47:54.715Z,2.72
2022-10-11T04:50:22.367Z,3.00
2022-10-11T04:52:55.804Z,2.72
2022-10-11T04:55:30.756Z,4.35
2022-10-11T04:58:04.828Z,5.55
2022-10-11T05:00:32.237Z,3.88
2022-10-11T05:03:05.709Z,3.28
2022-10-11T05:05:34.533Z,3.42
2022-10-11T05:08:08.749Z,4.60
2022-10-11T05:10:36.014Z,3.67
2022-10-11T05:13:03.944Z,4.43
2022-10-11T05:15:37.734Z,2.33
2022-10-11T05:18:06.525Z,3.72
2022-10-11T05:20:40.785Z,3.42
2022-10-11T05:23:09.205Z,4.53
2022-10-11T05:25:43.834Z,3.42
2022-10-11T05:28:10.930Z,4.28
2022-10-11T05:30:44.977Z,3.60
2022-10-11T05:33:12.204Z,3.30
2022-10-11T05:35:45.855Z,4.50
2022-10-11T05:38:13.413Z,4.95
2022-10-11T05:40:46.859Z,5.20
2022-10-11T05:43:14.101Z,5.00
2022-10-11T05:45:49.854Z,5.93
2022-10-11T05:48:23.789Z,9.48
2022-10-11T05:50:51.244Z,10.73
2022-10-11T05:53:25.104Z,9.25
2022-10-11T05:55:52.345Z,8.27
2022-10-11T05:58:26.989Z,12.45
2022-10-11T06:01:01.947Z,6.95
2022-10-11T06:06:04.638Z,8.27
2022-10-11T06:08:32.251Z,13.43
2022-10-11T06:11:09.120Z,7.25
2022-10-11T06:13:45.833Z,7.05
2022-10-11T06:16:25.814Z,8.03
2022-10-11T06:19:02.154Z,7.00
2022-10-11T06:21:35.921Z,7.22
2022-10-11T06:24:03.351Z,6.05
2022-10-11T06:26:37.899Z,4.95
2022-10-11T06:29:06.255Z,6.53
2022-10-11T06:31:40.302Z,6.50
2022-10-11T06:34:15.521Z,7.40
2022-10-11T06:36:49.029Z,5.78
2022-10-11T06:39:16.288Z,4.65
2022-10-11T06:41:49.994Z,6.15
2022-10-11T06:44:18.614Z,7.40
2022-10-11T06:46:52.772Z,6.78
2022-10-11T06:49:23.278Z,4.37
2022-10-11T06:51:57.816Z,4.57
2022-10-11T06:54:26.129Z,4.80
2022-10-11T06:56:59.805Z,5.70
2022-10-11T06:59:28.875Z,4.03
2022-10-11T07:02:02.948Z,4.20
2022-10-11T07:04:30.469Z,4.45
2022-10-11T07:07:04.734Z,6.35
2022-10-11T07:09:32.870Z,4.57
2022-10-11T07:11:59.919Z,6.68
2022-10-11T07:14:33.859Z,4.97
2022-10-11T07:17:08.134Z,4.07
2022-10-11T07:19:42.160Z,4.78
2022-10-11T07:22:09.699Z,4.07
2022-10-11T07:24:44.013Z,3.25
2022-10-11T07:27:18.046Z,3.58
2022-10-11T07:29:51.888Z,4.07
2022-10-11T07:32:19.054Z,4.55
2022-10-11T07:34:53.879Z,3.30
2022-10-11T07:37:21.659Z,3.28
2022-10-11T07:39:56.884Z,3.70
2022-10-11T07:44:58.319Z,2.58
2022-10-11T07:47:32.840Z,2.35
2022-10-11T07:50:00.429Z,2.55
2022-10-11T07:52:34.819Z,3.53
2022-10-11T07:55:01.925Z,2.35
2022-10-11T07:57:35.789Z,3.15
2022-10-11T08:00:03.433Z,4.28
2022-10-11T08:02:36.849Z,3.35
2022-10-11T08:05:05.029Z,2.83
2022-10-11T08:07:38.756Z,4.47
2022-10-11T08:10:07.348Z,2.42
2022-10-11T08:12:41.873Z,3.47
2022-10-11T08:15:30.880Z,1.90
2022-10-11T08:18:06.966Z,2.15
2022-10-11T08:20:35.552Z,2.63
2022-10-11T08:23:10.083Z,2.53
2022-10-11T08:25:52.804Z,2.78
2022-10-11T08:28:27.890Z,2.53
2022-10-11T08:30:56.109Z,2.15
2022-10-11T08:33:32.323Z,3.08
2022-10-11T08:35:59.993Z,1.85
2022-10-11T08:38:33.804Z,2.05
2022-10-11T08:41:07.834Z,3.33
2022-10-11T08:44:12.895Z,1.35
2022-10-11T08:46:51.143Z,1.52
2022-10-11T08:49:28.838Z,1.70
2022-10-11T08:52:28.586Z,1.38
2022-10-11T08:55:08.989Z,1.70
2022-10-11T08:57:39.338Z,1.70
2022-10-11T09:00:20.853Z,1.52
2022-10-11T09:03:08.656Z,1.20
2022-10-11T09:05:48.872Z,1.27
2022-10-11T09:08:16.078Z,1.73
2022-10-11T09:11:18.877Z,1.30
2022-10-11T09:14:14.086Z,1.10
2022-10-11T09:17:12.199Z,2.05
2022-10-11T09:19:49.243Z,1.85
2022-10-11T09:23:01.817Z,1.70
2022-10-11T09:25:37.675Z,1.42
2022-10-11T09:28:30.272Z,1.83
2022-10-11T09:30:59.596Z,4.32
2022-10-11T09:33:46.268Z,1.80
2022-10-11T09:36:19.837Z,1.75
2022-10-11T09:39:01.894Z,2.15
2022-10-11T09:42:00.326Z,1.92
2022-10-11T09:44:50.241Z,3.08
2022-10-11T09:47:28.970Z,3.38
2022-10-11T09:50:03.248Z,2.20
2022-10-11T09:52:37.952Z,2.47
2022-10-11T09:55:05.715Z,2.65
2022-10-11T09:57:45.902Z,3.63
2022-10-11T10:00:21.054Z,3.63
2022-10-11T10:03:01.999Z,2.95
2022-10-11T10:05:37.842Z,3.20
2022-10-11T10:08:18.080Z,4.68
2022-10-11T10:10:59.280Z,2.35
2022-10-11T10:13:57.978Z,3.22
2022-10-11T10:16:48.878Z,2.95
2022-10-11T10:19:29.928Z,2.78
2022-10-11T10:22:06.012Z,2.42
2022-10-11T10:24:42.110Z,2.10
2022-10-11T10:27:31.857Z,2.92
2022-10-11T10:30:13.743Z,2.65
2022-10-11T10:33:11.821Z,2.90
2022-10-11T10:35:46.953Z,2.50
2022-10-11T10:38:51.299Z,2.97
2022-10-11T10:41:19.817Z,2.13
2022-10-11T10:44:00.827Z,3.67
2022-10-11T10:46:34.367Z,3.10
2022-10-11T10:49:52.627Z,2.60
2022-10-11T10:52:59.902Z,4.25
2022-10-11T10:55:39.962Z,2.08
2022-10-11T10:58:16.398Z,4.57
2022-10-11T11:01:11.873Z,3.33
2022-10-11T11:03:47.386Z,3.50
2022-10-11T11:06:36.737Z,4.28
2022-10-11T11:09:24.947Z,3.88
2022-10-11T11:12:13.148Z,4.97
2022-10-11T11:15:06.290Z,4.07
2022-10-11T11:18:18.327Z,4.07
2022-10-11T11:20:45.504Z,3.55
2022-10-11T11:23:45.018Z,3.90
2022-10-11T11:26:26.653Z,3.80
2022-10-11T11:29:36.275Z,3.47
2022-10-11T11:32:47.889Z,2.70
2022-10-11T11:35:27.553Z,3.33
2022-10-11T11:38:08.177Z,3.13
2022-10-11T11:41:04.342Z,3.08
2022-10-11T11:44:05.306Z,3.83
2022-10-11T11:47:01.326Z,2.80
2022-10-11T11:49:36.285Z,3.00
2022-10-11T11:54:39.205Z,3.33
2022-10-11T11:57:45.072Z,3.03
2022-10-11T12:00:24.957Z,5.20
2022-10-11T12:03:17.970Z,4.40
2022-10-11T12:06:16.713Z,3.17
2022-10-11T12:09:01.816Z,3.78
2022-10-11T12:11:36.980Z,6.13
2022-10-11T12:14:27.985Z,3.25
2022-10-11T12:17:28.990Z,4.07
2022-10-11T12:20:15.996Z,2.78
2022-10-11T12:23:01.062Z,2.85
2022-10-11T12:25:35.791Z,2.20
2022-10-11T12:28:56.095Z,3.60
2022-10-11T12:31:40.296Z,2.58
2022-10-11T12:37:20.358Z,2.92
2022-10-11T12:40:06.245Z,2.55
2022-10-11T12:42:37.415Z,2.80
2022-10-11T12:45:21.275Z,3.95
2022-10-11T12:48:08.059Z,2.58
2022-10-11T12:51:06.869Z,3.03
2022-10-11T12:54:28.192Z,2.88
2022-10-11T12:57:15.964Z,2.53
2022-10-11T12:59:46.915Z,3.00
2022-10-11T13:02:42.289Z,3.08
2022-10-11T13:05:27.463Z,4.35
2022-10-11T13:08:05.957Z,2.78
2022-10-11T13:10:53.294Z,2.58
2022-10-11T13:13:30.079Z,3.38
2022-10-11T13:16:23.034Z,2.88
2022-10-11T13:19:07.013Z,4.30
2022-10-11T13:21:36.521Z,3.67
2022-10-11T13:24:26.890Z,3.30
2022-10-11T13:27:04.616Z,2.92
2022-10-11T13:29:45.153Z,3.65
2022-10-11T13:32:25.120Z,4.78
2022-10-11T13:35:12.224Z,5.47
2022-10-11T13:37:46.044Z,5.68
2022-10-11T13:40:27.975Z,10.27
2022-10-11T13:42:56.088Z,6.57
2022-10-11T13:45:37.214Z,5.53
2022-10-11T13:48:05.314Z,4.95
2022-10-11T13:50:40.805Z,4.70
2022-10-11T13:53:16.858Z,3.70
2022-10-11T13:56:02.583Z,3.88
2022-10-11T13:58:41.995Z,5.38
2022-10-11T14:01:20.429Z,3.97
2022-10-11T14:04:05.987Z,2.83
2022-10-11T14:06:47.824Z,4.25
2022-10-11T14:09:30.034Z,3.63
2022-10-11T14:12:45.909Z,3.50
2022-10-11T14:15:39.047Z,3.80
2022-10-11T14:18:43.964Z,3.53
2022-10-11T14:21:27.475Z,3.00
2022-10-11T14:24:13.033Z,2.60
2022-10-11T14:26:46.396Z,4.15
2022-10-11T14:29:30.217Z,2.47
2022-10-11T14:32:27.975Z,3.65
2022-10-11T14:34:56.011Z,2.47
2022-10-11T14:37:30.154Z,2.67
2022-10-11T14:40:04.299Z,3.00
2022-10-11T14:42:37.945Z,3.90
2022-10-11T14:45:11.965Z,3.00
2022-10-11T14:47:46.954Z,2.37
2022-10-11T14:53:07.961Z,2.15
2022-10-11T14:55:47.281Z,2.97
2022-10-11T14:58:24.124Z,1.73
2022-10-11T15:00:51.601Z,2.63
2022-10-11T15:03:25.065Z,2.78
2022-10-11T15:05:59.999Z,3.08
2022-10-11T15:11:08.074Z,2.30
2022-10-11T15:13:35.825Z,2.07
2022-10-11T15:16:10.009Z,2.15
2022-10-11T15:18:44.520Z,2.88
2022-10-11T15:21:22.280Z,2.47
2022-10-11T15:23:51.119Z,2.60
2022-10-11T15:26:29.519Z,3.33
2022-10-11T15:28:57.874Z,2.60
2022-10-11T15:31:32.019Z,1.95
2022-10-11T15:34:02.114Z,2.10
2022-10-11T15:36:37.279Z,2.28
2022-10-11T15:39:05.154Z,2.03
2022-10-11T15:41:39.249Z,1.83
2022-10-11T15:44:06.500Z,2.47
2022-10-11T15:46:40.160Z,2.53
2022-10-11T15:49:12.669Z,2.38
2022-10-11T15:51:47.083Z,1.77
2022-10-11T15:54:14.310Z,2.45
2022-10-11T15:56:48.231Z,1.65
2022-10-11T15:59:22.279Z,3.42
2022-10-11T16:01:56.174Z,2.13
2022-10-11T16:04:23.549Z,1.75
2022-10-11T16:06:52.089Z,1.88
2022-10-11T16:09:26.029Z,2.42
2022-10-11T16:11:54.359Z,3.35
2022-10-11T16:14:28.331Z,2.08
2022-10-11T16:17:03.766Z,1.98
2022-10-11T16:19:37.962Z,2.03
2022-10-11T16:22:05.069Z,1.37
2022-10-11T16:24:38.970Z,2.35
2022-10-11T16:27:06.404Z,1.30
2022-10-11T16:29:40.279Z,1.63
2022-10-11T16:32:07.537Z,1.75
2022-10-11T16:34:42.154Z,2.08
2022-10-11T16:37:09.559Z,1.65
2022-10-11T16:39:43.038Z,1.58
2022-10-11T16:42:17.110Z,1.17
2022-10-11T16:44:45.280Z,1.50
2022-10-11T16:47:19.025Z,1.52
2022-10-11T16:49:54.070Z,1.98
2022-10-11T16:54:55.646Z,1.85
2022-10-11T16:57:30.181Z,1.88
2022-10-11T17:00:15.289Z,1.85
2022-10-11T17:02:55.009Z,2.72
2022-10-11T17:05:23.738Z,3.35
2022-10-11T17:07:58.020Z,1.90
2022-10-11T17:10:45.958Z,1.50
2022-10-11T17:13:21.358Z,2.10
2022-10-11T17:15:56.986Z,1.85
2022-10-11T17:18:31.743Z,2.25
2022-10-11T17:21:15.441Z,1.67
2022-10-11T17:23:51.137Z,1.05
2022-10-11T17:26:21.872Z,2.60
2022-10-11T17:28:56.037Z,0.95
2022-10-11T17:31:24.646Z,2.30
2022-10-11T17:34:00.118Z,2.03
2022-10-11T17:36:34.968Z,2.42
2022-10-11T17:39:16.029Z,1.92
2022-10-11T17:41:44.511Z,1.60
2022-10-11T17:44:20.510Z,2.17
2022-10-11T17:46:48.524Z,2.55
2022-10-11T17:49:23.136Z,1.85
2022-10-11T17:51:57.050Z,1.95
2022-10-11T17:54:24.984Z,1.70
2022-10-11T17:56:59.798Z,3.38
2022-10-11T17:59:28.307Z,2.55
2022-10-11T18:02:02.163Z,2.05
2022-10-11T18:04:36.995Z,1.75
2022-10-11T18:07:13.068Z,1.77
2022-10-11T18:09:49.076Z,3.40
2022-10-11T18:12:23.101Z,2.22
2022-10-11T18:14:51.400Z,4.90
2022-10-11T18:17:31.019Z,2.78
2022-10-11T18:19:58.464Z,3.90
2022-10-11T18:22:32.074Z,3.92
2022-10-11T18:25:06.580Z,4.00
2022-10-11T18:27:34.735Z,2.92
2022-10-11T18:30:09.043Z,3.45
2022-10-11T18:32:36.500Z,3.65
2022-10-11T18:35:11.019Z,3.63
2022-10-11T18:37:38.381Z,2.30
2022-10-11T18:40:14.074Z,2.42
2022-10-11T18:42:41.564Z,2.47
2022-10-11T18:45:16.124Z,3.33
2022-10-11T18:47:45.957Z,2.78
2022-10-11T18:50:20.987Z,2.08
2022-10-11T18:55:23.251Z,1.77
2022-10-11T18:57:51.976Z,2.53
2022-10-11T19:00:39.646Z,3.85
2022-10-11T19:03:14.141Z,2.60
2022-10-11T19:05:41.371Z,3.08
2022-10-11T19:08:15.175Z,2.42
2022-10-11T19:10:42.503Z,2.70
2022-10-11T19:13:16.167Z,2.65
2022-10-11T19:15:50.404Z,2.08
2022-10-11T19:18:30.323Z,2.93
2022-10-11T19:21:09.254Z,2.60
2022-10-11T19:23:40.006Z,3.95
2022-10-11T19:26:16.042Z,2.67
2022-10-11T19:28:43.990Z,2.03
2022-10-11T19:31:23.083Z,2.15
2022-10-11T19:33:50.628Z,1.95
2022-10-11T19:36:26.009Z,2.13
2022-10-11T19:38:57.104Z,4.18
2022-10-11T19:41:33.089Z,2.17
2022-10-11T19:44:06.963Z,2.70
2022-10-11T19:46:51.633Z,3.30
2022-10-11T19:49:23.628Z,3.28
2022-10-11T19:51:58.039Z,4.30
2022-10-11T19:54:32.432Z,4.03
2022-10-11T19:57:06.189Z,3.80
2022-10-11T19:59:40.288Z,3.55
2022-10-11T20:02:14.067Z,3.60
2022-10-11T20:04:52.356Z,3.08
2022-10-11T20:07:20.556Z,4.45
2022-10-11T20:09:55.283Z,3.50
2022-10-11T20:12:22.901Z,3.20
2022-10-11T20:14:57.331Z,2.72
2022-10-11T20:17:49.666Z,2.42
2022-10-11T20:20:31.409Z,2.60
2022-10-11T20:22:58.683Z,4.40
2022-10-11T20:25:34.421Z,3.47
2022-10-11T20:28:01.674Z,2.92
2022-10-11T20:30:35.208Z,2.78
2022-10-11T20:33:09.241Z,3.00
2022-10-11T20:35:38.339Z,4.13
2022-10-11T20:38:28.968Z,2.92
2022-10-11T20:40:57.932Z,3.75
2022-10-11T20:43:33.440Z,3.72
2022-10-11T20:46:02.721Z,2.92
2022-10-11T20:48:38.365Z,3.67
2022-10-11T20:51:19.462Z,3.85
2022-10-11T20:53:47.641Z,3.90
2022-10-11T20:56:23.310Z,3.97
2022-10-11T20:58:55.912Z,2.78
2022-10-11T21:01:42.407Z,3.17
2022-10-11T21:04:28.266Z,5.13
2022-10-11T21:07:17.053Z,3.17
2022-10-11T21:09:52.125Z,2.78
2022-10-11T21:12:19.781Z,2.42
2022-10-11T21:14:54.271Z,2.65
2022-10-11T21:17:28.430Z,4.97
2022-10-11T21:20:10.282Z,2.60
2022-10-11T21:22:44.170Z,2.25
2022-10-11T21:25:19.820Z,2.83
2022-10-11T21:27:54.801Z,3.67
2022-10-11T21:30:29.843Z,3.60
2022-10-11T21:35:36.262Z,2.25
2022-10-11T21:38:04.023Z,1.77
2022-10-11T21:40:38.743Z,2.20
2022-10-11T21:43:07.252Z,2.80
2022-10-11T21:45:45.942Z,3.88
2022-10-11T21:48:13.561Z,1.63
2022-10-11T21:50:47.333Z,2.03
2022-10-11T21:53:21.119Z,3.40
2022-10-11T21:55:48.642Z,3.17
2022-10-11T21:58:24.208Z,3.78
2022-10-11T22:00:51.980Z,2.85
2022-10-11T22:03:26.420Z,4.22
2022-10-11T22:05:53.980Z,4.10
2022-10-11T22:08:28.599Z,5.80
2022-10-11T22:10:58.363Z,3.47
2022-10-11T22:13:34.739Z,4.15
2022-10-11T22:16:23.241Z,4.13
2022-10-11T22:19:04.801Z,2.42
2022-10-11T22:21:44.003Z,4.82
2022-10-11T22:24:19.312Z,3.22
2022-10-11T22:26:53.310Z,6.05
2022-10-11T22:29:20.900Z,4.60
2022-10-11T22:31:55.164Z,3.65
2022-10-11T22:34:29.103Z,4.87
2022-10-11T22:36:57.524Z,2.88
2022-10-11T22:39:31.082Z,4.32
2022-10-11T22:41:58.822Z,5.78
2022-10-11T22:44:33.133Z,4.85
2022-10-11T22:47:00.403Z,5.70
2022-10-11T22:49:34.492Z,5.55
2022-10-11T22:52:08.132Z,4.70
2022-10-11T22:54:35.663Z,5.35
2022-10-11T22:57:11.104Z,4.65
2022-10-11T22:59:38.503Z,6.90
2022-10-11T23:02:12.553Z,6.65
2022-10-11T23:04:39.755Z,4.05
2022-10-11T23:07:14.063Z,4.05
2022-10-11T23:09:41.382Z,5.37
2022-10-11T23:12:15.105Z,6.60
2022-10-11T23:14:42.537Z,5.18
2022-10-11T23:17:24.143Z,4.63
2022-10-11T23:19:57.933Z,5.32
2022-10-11T23:22:32.556Z,3.95
2022-10-11T23:25:00.210Z,5.40
2022-10-11T23:27:37.297Z,4.50
2022-10-11T23:30:05.974Z,3.97
2022-10-11T23:32:40.453Z,4.20
2022-10-11T23:35:08.373Z,4.82
2022-10-11T23:37:42.274Z,5.85
2022-10-11T23:40:10.075Z,5.32
2022-10-11T23:42:44.564Z,3.80
2022-10-11T23:45:18.153Z,4.88
2022-10-11T23:47:45.403Z,4.57
2022-10-11T23:50:19.154Z,3.15
2022-10-11T23:52:46.424Z,4.88
2022-10-11T23:55:20.534Z,4.78
2022-10-11T23:57:47.783Z,4.43
